Time;durP1;ratioP1;P1;durP2;ratioP2;P2;SDS_P1;SDS_P2;PMS_P1;PMS_P2;Temp;Humidity;BMP_temperature;BMP_pressure;BME280_temperature;BME280_humidity;BME280_pressure;Samples;Min_cycle;Max_cycle;Signal;HPM_P1;HPM_P2
2022/06/03 00:01:00;;;;;;;4.18;3.42;;;12.00;99.90;;;;;;5069899;28;20024;-63
2022/06/03 00:03:36;;;;;;;5.30;3.05;;;11.90;99.90;;;;;;5052292;28;20040;-64
2022/06/03 00:06:32;;;;;;;3.92;3.15;;;11.90;99.90;;;;;;5053678;28;20025;-63
2022/06/03 00:09:15;;;;;;;4.28;3.22;;;11.80;99.90;;;;;;5062727;28;20040;-64
2022/06/03 00:11:59;;;;;;;3.80;3.40;;;11.70;99.90;;;;;;5056926;28;20486;-64
2022/06/03 00:14:48;;;;;;;4.78;3.42;;;11.80;99.90;;;;;;5057969;28;20082;-63
2022/06/03 00:17:36;;;;;;;5.15;3.53;;;11.80;99.90;;;;;;5045351;28;20040;-63
2022/06/03 00:20:11;;;;;;;5.82;3.67;;;11.70;99.90;;;;;;5061530;28;20025;-64
2022/06/03 00:22:53;;;;;;;6.30;3.92;;;11.70;99.90;;;;;;5060239;28;20043;-63
2022/06/03 00:25:22;;;;;;;4.32;3.33;;;11.70;99.90;;;;;;5059599;28;20475;-63
2022/06/03 00:27:47;;;;;;;4.55;3.00;;;11.70;99.90;;;;;;5066296;28;20588;-63
2022/06/03 00:30:51;;;;;;;4.65;3.58;;;11.70;99.90;;;;;;5058847;28;20020;-63
2022/06/03 00:33:49;;;;;;;4.50;3.85;;;11.70;99.90;;;;;;5060860;28;20027;-63
2022/06/03 00:36:52;;;;;;;3.83;3.42;;;11.60;99.90;;;;;;5055527;28;20492;-63
2022/06/03 00:39:36;;;;;;;6.13;3.35;;;11.50;99.90;;;;;;5066991;28;20666;-64
2022/06/03 00:42:34;;;;;;;5.28;3.60;;;11.50;99.90;;;;;;5060324;28;20029;-63
2022/06/03 00:45:00;;;;;;;7.93;3.58;;;11.50;99.90;;;;;;5029772;28;20048;-63
2022/06/03 00:47:39;;;;;;;5.35;4.30;;;11.40;99.90;;;;;;5064372;28;20028;-64
2022/06/03 00:50:46;;;;;;;5.05;4.00;;;11.40;99.90;;;;;;5068564;28;20107;-63
2022/06/03 00:53:20;;;;;;;6.53;4.65;;;11.40;99.90;;;;;;5058802;28;20017;-62
2022/06/03 00:55:46;;;;;;;;;;;11.40;99.90;;;;;;5060092;28;20028;-63
2022/06/03 00:58:32;;;;;;;8.18;3.63;;;11.40;99.90;;;;;;5058303;28;20328;-62
2022/06/03 01:01:36;;;;;;;5.10;3.88;;;11.50;99.90;;;;;;5062289;28;20107;-63
2022/06/03 01:04:21;;;;;;;5.43;3.47;;;11.60;99.90;;;;;;5025170;28;20179;-64
2022/06/03 01:06:46;;;;;;;;;;;11.70;99.90;;;;;;5063055;28;20029;-63
2022/06/03 01:09:35;;;;;;;5.43;3.80;;;11.70;99.90;;;;;;5046387;28;19913;-63
2022/06/03 01:12:08;;;;;;;5.10;3.17;;;11.70;99.90;;;;;;5059888;28;20112;-63
2022/06/03 01:14:58;;;;;;;5.45;3.78;;;11.70;99.90;;;;;;5057185;28;20104;-63
2022/06/03 01:17:45;;;;;;;5.90;3.50;;;11.70;99.90;;;;;;5060952;28;20441;-64
2022/06/03 01:20:16;;;;;;;4.75;3.17;;;11.60;99.90;;;;;;5059393;28;20029;-62
2022/06/03 01:23:01;;;;;;;5.50;3.60;;;11.60;99.90;;;;;;5064048;28;20029;-62
2022/06/03 01:25:50;;;;;;;8.38;3.40;;;11.60;99.90;;;;;;5060561;28;20043;-63
2022/06/03 01:28:25;;;;;;;10.88;3.80;;;11.50;99.90;;;;;;5056495;28;20099;-63
2022/06/03 01:31:37;;;;;;;4.13;3.60;;;11.50;99.90;;;;;;5057752;28;20847;-63
2022/06/03 01:34:23;;;;;;;4.90;3.25;;;11.50;99.90;;;;;;5060896;28;20187;-65
2022/06/03 01:37:33;;;;;;;4.05;2.92;;;11.40;99.90;;;;;;5057694;28;20082;-62
2022/06/03 01:40:33;;;;;;;4.70;2.97;;;11.40;99.90;;;;;;4997184;28;20030;-63
2022/06/03 01:43:08;;;;;;;4.93;3.15;;;11.50;99.90;;;;;;5005459;28;20034;-61
2022/06/03 01:46:18;;;;;;;3.92;3.45;;;11.50;99.90;;;;;;5045165;28;20052;-63
2022/06/03 01:49:15;;;;;;;3.53;2.50;;;11.40;99.90;;;;;;5047702;28;20033;-63
2022/06/03 01:51:43;;;;;;;3.30;3.00;;;11.40;99.90;;;;;;5042726;28;20045;-64
2022/06/03 01:54:45;;;;;;;4.93;3.40;;;11.40;99.90;;;;;;5052935;28;20096;-63
2022/06/03 01:57:43;;;;;;;4.70;3.10;;;11.40;99.90;;;;;;5056259;28;20108;-63
2022/06/03 02:00:25;;;;;;;3.83;3.05;;;11.40;99.90;;;;;;5056912;28;20026;-63
2022/06/03 02:03:10;;;;;;;4.60;3.30;;;11.30;99.90;;;;;;5055135;28;20384;-63
2022/06/03 02:06:01;;;;;;;5.97;3.72;;;11.20;99.90;;;;;;5059118;28;20049;-63
2022/06/03 02:08:58;;;;;;;3.97;3.35;;;11.20;99.90;;;;;;5066270;28;20025;-63
2022/06/03 02:12:08;;;;;;;4.35;3.40;;;11.10;99.90;;;;;;5035192;28;20036;-64
2022/06/03 02:15:12;;;;;;;5.20;3.15;;;11.10;99.90;;;;;;4980951;28;20045;-63
2022/06/03 02:18:03;;;;;;;3.20;2.90;;;11.10;99.90;;;;;;4976021;28;21737;-63
2022/06/03 02:20:52;;;;;;;3.47;3.15;;;11.10;99.90;;;;;;5052868;28;20444;-63
2022/06/03 02:23:56;;;;;;;4.53;3.35;;;11.00;99.90;;;;;;5060242;28;20562;-63
2022/06/03 02:26:44;;;;;;;4.00;3.60;;;10.90;99.90;;;;;;5061975;28;20036;-63
2022/06/03 02:32:50;;;;;;;3.67;3.08;;;10.90;99.90;;;;;;5041735;28;20513;-62
2022/06/03 02:35:41;;;;;;;3.28;2.97;;;10.80;99.90;;;;;;5065882;28;20029;-63
2022/06/03 02:38:31;;;;;;;6.32;3.75;;;10.80;99.90;;;;;;5062868;28;20029;-63
2022/06/03 02:41:21;;;;;;;3.75;3.45;;;10.60;99.90;;;;;;5061790;28;21848;-63
2022/06/03 02:43:47;;;;;;;4.28;3.08;;;10.70;99.90;;;;;;5065643;28;20032;-63
2022/06/03 02:46:29;;;;;;;5.13;3.22;;;10.70;99.90;;;;;;5067559;28;20028;-61
2022/06/03 02:48:55;;;;;;;5.25;3.22;;;10.60;99.90;;;;;;5057174;28;20025;-63
2022/06/03 02:51:35;;;;;;;7.55;3.22;;;10.50;99.90;;;;;;5065743;28;20033;-63
2022/06/03 02:54:16;;;;;;;3.92;2.92;;;10.50;99.90;;;;;;5068732;28;20394;-63
2022/06/03 02:57:19;;;;;;;4.22;3.28;;;10.50;99.90;;;;;;5060576;28;20029;-63
2022/06/03 03:00:19;;;;;;;4.50;3.38;;;10.60;99.90;;;;;;5062307;28;20051;-61
2022/06/03 03:03:05;;;;;;;4.93;3.38;;;10.50;99.90;;;;;;5023638;28;20048;-63
2022/06/03 03:05:54;;;;;;;7.15;3.72;;;10.40;99.90;;;;;;5058177;28;21937;-62
2022/06/03 03:08:54;;;;;;;8.32;3.80;;;10.30;99.90;;;;;;5049072;28;21045;-63
2022/06/03 03:12:02;;;;;;;3.63;3.33;;;10.30;99.90;;;;;;5089677;22;20016;-59
2022/06/03 03:14:39;;;;;;;5.53;3.50;;;10.20;99.90;;;;;;5047729;28;20040;-60
2022/06/03 03:17:36;;;;;;;6.07;3.60;;;10.10;99.90;;;;;;5091603;28;20020;-57
2022/06/03 03:20:39;;;;;;;4.63;3.28;;;10.10;99.90;;;;;;5086404;28;20054;-59
2022/06/03 03:23:16;;;;;;;5.63;3.78;;;10.10;99.90;;;;;;5078362;28;20024;-60
2022/06/03 03:26:03;;;;;;;8.35;3.30;;;10.10;99.90;;;;;;5070132;28;20445;-62
2022/06/03 03:28:53;;;;;;;5.97;3.65;;;10.10;99.90;;;;;;5069721;28;20027;-61
2022/06/03 03:31:51;;;;;;;7.53;3.13;;;10.20;99.90;;;;;;5068788;28;20108;-60
2022/06/03 03:34:38;;;;;;;5.50;3.33;;;10.10;99.90;;;;;;5076906;28;20021;-59
2022/06/03 03:37:06;;;;;;;5.35;3.40;;;10.10;99.90;;;;;;5067072;28;20720;-59
2022/06/03 03:40:03;;;;;;;6.47;3.50;;;10.10;99.90;;;;;;5067369;28;20037;-60
2022/06/03 03:42:43;;;;;;;3.78;3.10;;;10.00;99.90;;;;;;5066047;28;20028;-59
2022/06/03 03:45:21;;;;;;;3.95;2.65;;;10.00;99.90;;;;;;5063783;28;20024;-59
2022/06/03 03:47:55;;;;;;;6.15;3.17;;;10.10;99.90;;;;;;5072649;28;20047;-59
2022/06/03 03:50:41;;;;;;;5.22;3.08;;;10.10;99.90;;;;;;5070433;28;20033;-60
2022/06/03 03:53:18;;;;;;;4.80;2.90;;;10.10;99.90;;;;;;5067313;28;20471;-59
2022/06/03 03:56:08;;;;;;;7.32;2.97;;;10.10;99.90;;;;;;5068744;28;20031;-60
2022/06/03 03:59:03;;;;;;;3.97;3.20;;;10.20;99.90;;;;;;5067416;28;20154;-60
2022/06/03 04:01:53;;;;;;;5.25;3.78;;;10.30;99.90;;;;;;5067033;28;20032;-59
2022/06/03 04:04:50;;;;;;;6.00;3.58;;;10.30;99.90;;;;;;5067192;28;20058;-60
2022/06/03 04:07:54;;;;;;;3.13;2.60;;;10.40;99.90;;;;;;5066603;28;20424;-61
2022/06/03 04:10:48;;;;;;;4.88;2.85;;;10.40;99.90;;;;;;5040001;28;20044;-60
2022/06/03 04:13:35;;;;;;;4.20;3.25;;;10.40;99.90;;;;;;5065991;28;20067;-60
2022/06/03 04:16:34;;;;;;;4.72;3.35;;;10.50;99.90;;;;;;5069179;28;20030;-60
2022/06/03 04:19:06;;;;;;;5.93;2.83;;;10.50;99.90;;;;;;5067043;28;20052;-60
2022/06/03 04:21:35;;;;;;;4.35;2.80;;;10.50;99.90;;;;;;5070288;28;20628;-60
2022/06/03 04:24:31;;;;;;;3.58;2.72;;;10.50;99.90;;;;;;5070071;28;20096;-57
2022/06/03 04:27:27;;;;;;;4.32;3.20;;;10.50;99.90;;;;;;5065964;28;20017;-59
2022/06/03 04:30:12;;;;;;;4.47;3.03;;;10.50;99.90;;;;;;5075589;28;20109;-59
2022/06/03 04:32:57;;;;;;;4.32;2.70;;;10.60;99.90;;;;;;5066912;28;20025;-59
2022/06/03 04:35:41;;;;;;;;;;;10.70;99.90;;;;;;5073682;28;20040;-60
2022/06/03 04:38:16;;;;;;;4.28;3.05;;;10.80;99.90;;;;;;5066516;28;20007;-60
2022/06/03 04:41:09;;;;;;;5.13;3.17;;;10.80;99.90;;;;;;5065834;28;20035;-59
2022/06/03 04:44:21;;;;;;;7.38;4.07;;;10.90;99.90;;;;;;5068650;28;20036;-60
2022/06/03 04:46:58;;;;;;;5.38;3.38;;;11.00;99.90;;;;;;5064596;28;20052;-57
2022/06/03 04:49:23;;;;;;;5.05;3.15;;;11.10;99.90;;;;;;5070640;28;20024;-60
2022/06/03 04:51:49;;;;;;;6.00;4.10;;;11.20;99.90;;;;;;5068962;28;20395;-59
2022/06/03 04:54:52;;;;;;;6.00;3.70;;;11.30;99.90;;;;;;5068950;28;20016;-60
2022/06/03 04:57:50;;;;;;;6.85;3.88;;;11.40;99.90;;;;;;5069086;28;20021;-60
2022/06/03 05:00:49;;;;;;;8.00;3.00;;;11.50;99.90;;;;;;5078027;28;20021;-60
2022/06/03 05:03:49;;;;;;;4.22;2.85;;;11.60;99.90;;;;;;5066836;28;20085;-60
2022/06/03 05:06:56;;;;;;;4.63;3.00;;;11.70;99.90;;;;;;5069937;28;20016;-60
2022/06/03 05:09:59;;;;;;;9.73;3.20;;;11.80;99.90;;;;;;4994767;28;20026;-60
2022/06/03 05:13:01;;;;;;;4.68;2.97;;;11.90;99.90;;;;;;5068752;28;20034;-60
2022/06/03 05:15:38;;;;;;;3.17;2.53;;;12.00;99.90;;;;;;5065724;28;20043;-60
2022/06/03 05:18:34;;;;;;;2.72;2.47;;;12.10;99.90;;;;;;5067007;28;20024;-60
2022/06/03 05:21:36;;;;;;;5.25;2.42;;;12.20;99.90;;;;;;5066584;28;20529;-58
2022/06/03 05:24:20;;;;;;;2.88;2.35;;;12.30;99.90;;;;;;5062681;28;20407;-61
2022/06/03 05:27:05;;;;;;;2.80;2.45;;;12.40;99.90;;;;;;5060981;28;20039;-60
2022/06/03 05:29:57;;;;;;;5.90;2.08;;;12.50;99.90;;;;;;5064097;28;20142;-61
2022/06/03 05:32:38;;;;;;;7.22;2.30;;;12.60;99.90;;;;;;5063853;28;20047;-60
2022/06/03 05:35:29;;;;;;;4.50;3.03;;;12.70;99.90;;;;;;5066765;28;20075;-59
2022/06/03 05:38:26;;;;;;;10.43;3.03;;;12.80;99.90;;;;;;5051582;28;20032;-60
2022/06/03 05:42:23;;;;;;;4.15;3.08;;;12.80;99.90;;;;;;5068228;28;20035;-60
2022/06/03 05:44:18;;;;;;;4.60;2.55;;;13.00;99.90;;;;;;5085142;28;20070;-60
2022/06/03 05:47:00;;;;;;;4.53;2.08;;;13.10;99.90;;;;;;5074118;28;20047;-60
2022/06/03 05:49:56;;;;;;;3.80;2.38;;;13.20;99.90;;;;;;5071160;28;20028;-60
2022/06/03 05:52:34;;;;;;;2.00;1.80;;;13.30;99.90;;;;;;5074301;28;20443;-60
2022/06/03 05:55:23;;;;;;;2.17;1.80;;;13.30;99.90;;;;;;5066486;28;20144;-57
2022/06/03 05:58:13;;;;;;;2.63;1.80;;;13.40;99.90;;;;;;5078558;28;20067;-59
2022/06/03 06:01:10;;;;;;;2.33;1.80;;;13.50;99.90;;;;;;5073321;28;20133;-60
2022/06/03 06:04:13;;;;;;;3.60;1.95;;;13.70;99.90;;;;;;5072565;28;20124;-59
2022/06/03 06:07:06;;;;;;;3.33;2.00;;;13.80;99.90;;;;;;5077662;28;20035;-62
2022/06/03 06:09:45;;;;;;;3.58;1.67;;;13.90;99.90;;;;;;5055382;28;20398;-61
2022/06/03 06:12:17;;;;;;;2.88;1.58;;;14.00;99.90;;;;;;5070073;28;20051;-59
2022/06/03 06:15:07;;;;;;;3.92;1.88;;;14.10;99.90;;;;;;5077581;28;20445;-59
2022/06/03 06:18:09;;;;;;;2.72;1.30;;;14.20;99.90;;;;;;5070870;28;20043;-60
2022/06/03 06:20:45;;;;;;;3.70;1.83;;;14.40;99.90;;;;;;5078562;28;20025;-60
2022/06/03 06:23:41;;;;;;;4.97;1.70;;;14.40;99.90;;;;;;5079513;28;20032;-57
2022/06/03 06:26:35;;;;;;;1.90;1.58;;;14.50;99.90;;;;;;5072533;28;20044;-58
2022/06/03 06:29:23;;;;;;;2.92;2.08;;;14.50;99.90;;;;;;5069596;28;20036;-57
2022/06/03 06:32:13;;;;;;;1.42;1.30;;;14.70;99.90;;;;;;5070676;28;20031;-60
2022/06/03 06:35:25;;;;;;;1.88;1.40;;;14.80;99.90;;;;;;5060416;28;20069;-56
2022/06/03 06:38:09;;;;;;;2.25;1.13;;;15.00;99.90;;;;;;5068273;28;20016;-59
2022/06/03 06:40:47;;;;;;;1.52;1.42;;;15.10;99.90;;;;;;5071323;28;20458;-57
2022/06/03 06:43:46;;;;;;;1.70;1.30;;;15.20;99.90;;;;;;5075176;28;20066;-54
2022/06/03 06:46:29;;;;;;;1.60;1.50;;;15.30;99.90;;;;;;5077729;28;20085;-56
2022/06/03 06:48:54;;;;;;;2.45;1.30;;;15.40;99.90;;;;;;5083247;28;20410;-56
2022/06/03 06:51:56;;;;;;;1.88;1.25;;;15.50;99.90;;;;;;5078176;28;20020;-57
2022/06/03 06:54:33;;;;;;;1.20;1.10;;;15.60;99.90;;;;;;5075601;28;20534;-57
2022/06/03 06:57:20;;;;;;;3.80;0.98;;;15.70;99.90;;;;;;5079266;28;20051;-56
2022/06/03 06:59:50;;;;;;;2.05;1.27;;;15.80;99.90;;;;;;5062479;28;20039;-56
2022/06/03 07:02:27;;;;;;;1.88;1.38;;;15.90;99.90;;;;;;5070315;28;20028;-56
2022/06/03 07:04:56;;;;;;;1.45;1.23;;;15.90;99.90;;;;;;5087131;28;20055;-58
2022/06/03 07:07:40;;;;;;;2.47;1.48;;;16.00;99.90;;;;;;5092930;28;20440;-58
2022/06/03 07:10:15;;;;;;;2.88;1.40;;;16.10;99.90;;;;;;5078889;28;20074;-58
2022/06/03 07:12:49;;;;;;;2.45;1.48;;;16.20;99.90;;;;;;5076419;28;20032;-56
2022/06/03 07:15:23;;;;;;;2.08;1.40;;;16.30;99.90;;;;;;5075049;28;20039;-57
2022/06/03 07:21:23;;;;;;;8.00;1.42;;;16.60;99.90;;;;;;5029630;28;20072;-57
2022/06/03 07:23:52;;;;;;;2.75;1.20;;;16.70;99.90;;;;;;5063168;28;20066;-57
2022/06/03 07:26:33;;;;;;;1.38;1.10;;;16.70;99.90;;;;;;5074299;28;20029;-57
2022/06/03 07:29:36;;;;;;;1.15;1.00;;;16.70;99.90;;;;;;5077188;28;20025;-58
2022/06/03 07:32:13;;;;;;;1.50;1.08;;;16.80;99.90;;;;;;5068665;28;20506;-58
2022/06/03 07:34:46;;;;;;;2.95;1.40;;;16.90;99.90;;;;;;5067712;28;20123;-55
2022/06/03 07:37:29;;;;;;;1.23;1.00;;;16.90;99.90;;;;;;5066549;28;20411;-56
2022/06/03 07:40:06;;;;;;;2.03;1.00;;;17.00;99.90;;;;;;5066277;28;20062;-59
2022/06/03 07:43:02;;;;;;;2.05;1.05;;;17.10;99.90;;;;;;5070526;28;20065;-56
2022/06/03 07:45:39;;;;;;;1.92;1.30;;;17.20;99.90;;;;;;5065833;28;20275;-58
2022/06/03 07:48:10;;;;;;;1.10;0.98;;;17.30;99.90;;;;;;5073382;28;20033;-56
2022/06/03 07:50:46;;;;;;;2.25;0.88;;;17.40;99.90;;;;;;5061528;28;20135;-59
2022/06/03 07:53:19;;;;;;;2.33;1.30;;;17.50;99.90;;;;;;5072382;28;20033;-56
2022/06/03 07:55:52;;;;;;;2.33;1.30;;;17.70;99.90;;;;;;5067773;28;20398;-56
2022/06/03 07:58:22;;;;;;;1.10;1.00;;;17.70;99.90;;;;;;5087933;28;20032;-57
2022/06/03 08:00:47;;;;;;;1.52;1.10;;;17.80;99.90;;;;;;5080235;28;20039;-57
2022/06/03 08:03:13;;;;;;;1.30;1.00;;;17.80;99.90;;;;;;5068312;28;20029;-57
2022/06/03 08:05:39;;;;;;;2.47;1.10;;;17.90;99.90;;;;;;5076679;28;20024;-56
2022/06/03 08:10:57;;;;;;;2.05;1.10;;;18.10;99.90;;;;;;5072536;28;20051;-56
2022/06/03 08:13:39;;;;;;;1.00;0.90;;;18.20;99.90;;;;;;5083283;28;20036;-55
2022/06/03 08:16:10;;;;;;;1.60;1.20;;;18.30;99.90;;;;;;5064914;28;20029;-58
2022/06/03 08:18:42;;;;;;;1.42;0.90;;;18.50;99.90;;;;;;5070091;28;20426;-56
2022/06/03 08:21:12;;;;;;;1.88;1.08;;;18.60;99.90;;;;;;5074866;28;20048;-59
2022/06/03 08:23:38;;;;;;;1.10;1.00;;;18.70;99.90;;;;;;5072472;28;20057;-58
2022/06/03 08:26:13;;;;;;;1.17;1.02;;;18.80;99.90;;;;;;5069151;28;20036;-58
2022/06/03 08:28:43;;;;;;;3.83;1.17;;;18.90;99.90;;;;;;5067017;28;20033;-58
2022/06/03 08:31:09;;;;;;;3.13;1.10;;;19.00;99.90;;;;;;5073694;28;20022;-57
2022/06/03 08:33:47;;;;;;;2.38;0.90;;;19.10;99.90;;;;;;5091196;28;20651;-57
2022/06/03 08:36:18;;;;;;;1.52;0.90;;;19.20;99.90;;;;;;5067114;28;20402;-56
2022/06/03 08:38:51;;;;;;;1.10;1.00;;;19.20;99.90;;;;;;5063817;28;20037;-60
2022/06/03 08:41:44;;;;;;;2.33;1.30;;;19.30;99.90;;;;;;5065545;28;20028;-58
2022/06/03 08:44:28;;;;;;;1.60;1.17;;;19.40;99.90;;;;;;5072377;28;20506;-58
2022/06/03 08:47:15;;;;;;;4.35;1.20;;;19.60;99.90;;;;;;5061583;28;20107;-60
2022/06/03 08:50:07;;;;;;;4.35;1.00;;;19.60;99.90;;;;;;5065601;28;20071;-59
2022/06/03 08:52:44;;;;;;;1.73;1.23;;;19.70;99.90;;;;;;5065856;28;20446;-56
2022/06/03 08:55:25;;;;;;;1.55;1.23;;;19.90;99.90;;;;;;5066772;28;20188;-58
2022/06/03 08:57:53;;;;;;;5.65;1.17;;;20.10;99.90;;;;;;5064728;28;20043;-58
2022/06/03 09:00:25;;;;;;;1.13;1.02;;;20.20;99.90;;;;;;5060963;28;20032;-60
2022/06/03 09:03:10;;;;;;;5.35;1.00;;;20.30;99.90;;;;;;5066335;28;20032;-58
2022/06/03 09:05:44;;;;;;;1.60;1.20;;;20.40;99.90;;;;;;5061759;28;20032;-58
2022/06/03 09:08:34;;;;;;;1.67;1.30;;;20.40;99.90;;;;;;5060266;28;20027;-59
2022/06/03 09:11:08;;;;;;;11.25;1.65;;;20.40;99.90;;;;;;5064257;28;20048;-59
2022/06/03 09:14:04;;;;;;;1.85;0.93;;;20.50;99.90;;;;;;5083051;22;20041;-60
2022/06/03 09:16:31;;;;;;;1.42;1.10;;;20.60;99.90;;;;;;5083270;28;20040;-63
2022/06/03 09:19:17;;;;;;;12.55;1.95;;;20.70;99.90;;;;;;5089996;28;20020;-63
2022/06/03 09:21:48;;;;;;;2.95;1.23;;;20.90;99.90;;;;;;5088410;28;20095;-63
2022/06/03 09:24:25;;;;;;;1.90;1.52;;;21.10;99.90;;;;;;5082308;28;20914;-63
2022/06/03 09:26:53;;;;;;;3.80;0.98;;;21.30;99.90;;;;;;5068404;28;20647;-63
2022/06/03 09:29:20;;;;;;;2.72;1.90;;;21.60;99.90;;;;;;5068587;28;20028;-61
2022/06/03 09:31:51;;;;;;;2.28;1.23;;;21.80;99.90;;;;;;5068437;28;20062;-62
2022/06/03 09:34:21;;;;;;;2.25;1.10;;;21.90;99.90;;;;;;5069729;28;20476;-62
2022/06/03 09:36:49;;;;;;;1.30;0.90;;;21.80;99.90;;;;;;5069455;28;20085;-62
2022/06/03 09:39:16;;;;;;;2.33;1.08;;;21.90;99.90;;;;;;5069999;28;20537;-63
2022/06/03 09:41:46;;;;;;;2.03;1.00;;;22.10;99.90;;;;;;5050858;28;20028;-62
2022/06/03 09:44:15;;;;;;;1.17;0.98;;;22.10;99.90;;;;;;5069526;28;20105;-63
2022/06/03 09:46:42;;;;;;;2.42;1.10;;;22.30;99.90;;;;;;5070119;28;20025;-62
2022/06/03 09:49:09;;;;;;;1.33;1.17;;;22.30;99.90;;;;;;5069562;28;20035;-61
2022/06/03 09:51:55;;;;;;;3.50;0.95;;;22.10;99.90;;;;;;5056645;28;20037;-62
2022/06/03 09:54:38;;;;;;;4.00;1.30;;;22.40;99.90;;;;;;5066866;28;20060;-63
2022/06/03 09:57:39;;;;;;;2.47;1.30;;;22.20;99.90;;;;;;5065395;28;20059;-62
2022/06/03 10:00:08;;;;;;;0.88;0.88;;;22.00;99.90;;;;;;5024592;28;20036;-62
2022/06/03 10:02:34;;;;;;;1.95;1.13;;;22.10;99.90;;;;;;5068058;28;20119;-63
2022/06/03 10:05:01;;;;;;;6.38;1.10;;;22.30;99.90;;;;;;5069560;28;20036;-62
2022/06/03 10:07:27;;;;;;;2.67;1.48;;;22.60;99.90;;;;;;5069923;28;20490;-63
2022/06/03 10:12:49;;;;;;;1.90;1.02;;;22.90;99.90;;;;;;5066804;28;20548;-62
2022/06/03 10:15:38;;;;;;;1.73;1.00;;;23.20;99.90;;;;;;5068849;28;20048;-63
2022/06/03 10:18:18;;;;;;;2.08;1.05;;;23.50;99.90;;;;;;5069061;28;20418;-62
2022/06/03 10:20:44;;;;;;;1.45;1.35;;;23.90;99.90;;;;;;5070027;28;20028;-62
2022/06/03 10:23:11;;;;;;;1.20;1.00;;;23.90;99.90;;;;;;5068668;28;20797;-63
2022/06/03 10:25:39;;;;;;;5.88;1.13;;;23.90;99.90;;;;;;5068763;28;20048;-62
2022/06/03 10:28:07;;;;;;;5.53;1.08;;;23.90;99.90;;;;;;5069137;28;20444;-61
2022/06/03 10:30:35;;;;;;;1.35;1.20;;;23.90;99.90;;;;;;5073288;28;20442;-62
2022/06/03 10:33:01;;;;;;;1.45;1.00;;;23.90;99.90;;;;;;5073165;28;20085;-63
2022/06/03 10:35:28;;;;;;;1.63;1.00;;;23.90;99.90;;;;;;5072724;28;20082;-63
2022/06/03 10:37:59;;;;;;;5.13;2.97;;;23.90;99.90;;;;;;5067279;28;20021;-62
2022/06/03 10:40:27;;;;;;;2.13;1.25;;;23.70;99.90;;;;;;5072791;28;20021;-61
2022/06/03 10:42:59;;;;;;;2.15;1.30;;;23.80;99.90;;;;;;5069352;28;20383;-63
2022/06/03 10:45:33;;;;;;;1.80;0.93;;;23.70;99.90;;;;;;5071902;28;20522;-62
2022/06/03 10:47:58;;;;;;;1.55;1.10;;;23.90;99.90;;;;;;5070009;28;20040;-63
2022/06/03 10:50:29;;;;;;;2.33;1.00;;;24.10;99.90;;;;;;5072419;28;20029;-61
2022/06/03 11:01:42;;;;;;;4.10;1.20;;;24.90;99.90;;;;;;5072457;28;20139;-63
2022/06/03 11:04:40;;;;;;;2.58;1.10;;;25.10;99.90;;;;;;5066043;28;20094;-62
2022/06/03 11:07:27;;;;;;;1.48;1.00;;;25.10;99.90;;;;;;5067810;28;20032;-62
2022/06/03 11:10:16;;;;;;;1.95;1.20;;;25.00;99.90;;;;;;5070748;28;20017;-62
2022/06/03 11:12:43;;;;;;;1.30;1.20;;;25.20;99.90;;;;;;5066743;28;20036;-62
2022/06/03 11:15:40;;;;;;;4.55;1.20;;;25.30;99.90;;;;;;5072714;28;20025;-62
2022/06/03 11:18:13;;;;;;;1.40;1.10;;;25.40;99.90;;;;;;5073049;28;20025;-63
2022/06/03 11:20:40;;;;;;;1.77;1.35;;;25.80;99.90;;;;;;5073796;28;20020;-63
2022/06/03 11:23:10;;;;;;;1.90;1.17;;;25.80;99.90;;;;;;5049965;28;20072;-61
2022/06/03 11:25:47;;;;;;;2.65;1.67;;;25.40;99.90;;;;;;5070341;28;20131;-63
2022/06/03 11:28:33;;;;;;;2.22;1.30;;;25.60;99.90;;;;;;5066548;28;20032;-61
2022/06/03 11:31:17;;;;;;;2.10;1.30;;;25.90;99.90;;;;;;5071901;28;20111;-62
2022/06/03 11:34:04;;;;;;;2.30;1.58;;;26.20;99.60;;;;;;5073382;28;20031;-63
2022/06/03 11:36:36;;;;;;;2.67;1.13;;;26.10;99.90;;;;;;5065676;28;20020;-63
2022/06/03 11:39:24;;;;;;;2.38;1.20;;;26.30;99.90;;;;;;5070794;28;20040;-62
2022/06/03 11:41:58;;;;;;;2.20;1.23;;;26.00;99.90;;;;;;5070144;28;20849;-61
2022/06/03 11:44:42;;;;;;;;;;;26.30;99.90;;;;;;5072796;28;20028;-62
2022/06/03 11:47:18;;;;;;;1.27;1.10;;;26.50;99.90;;;;;;5069470;28;20404;-63
2022/06/03 11:49:44;;;;;;;2.28;1.15;;;27.00;99.70;;;;;;5065019;28;20040;-63
2022/06/03 11:52:10;;;;;;;2.08;1.30;;;27.10;99.40;;;;;;5055792;28;20023;-65
2022/06/03 11:54:37;;;;;;;2.63;0.90;;;27.50;99.90;;;;;;5066281;28;20431;-63
2022/06/03 11:57:03;;;;;;;1.92;0.98;;;28.00;98.10;;;;;;5063999;28;20055;-64
2022/06/03 11:59:38;;;;;;;2.53;1.75;;;28.20;98.40;;;;;;5061931;28;20029;-63
2022/06/03 12:02:25;;;;;;;2.33;1.25;;;28.60;97.20;;;;;;5063988;28;20118;-62
2022/06/03 12:05:07;;;;;;;1.83;1.38;;;28.30;95.90;;;;;;5062457;28;20039;-63
2022/06/03 12:08:03;;;;;;;2.67;1.40;;;28.30;95.40;;;;;;5067240;28;20451;-62
2022/06/03 12:10:53;;;;;;;1.95;1.50;;;28.20;97.20;;;;;;5066644;28;20112;-63
2022/06/03 12:13:27;;;;;;;2.47;1.30;;;28.10;94.40;;;;;;5064283;28;20024;-61
2022/06/03 12:15:52;;;;;;;1.73;1.10;;;27.80;98.30;;;;;;5063137;28;20040;-62
2022/06/03 12:18:37;;;;;;;1.85;1.33;;;27.80;98.00;;;;;;5070371;28;20031;-62
2022/06/03 12:21:05;;;;;;;8.30;3.00;;;27.80;94.00;;;;;;5062875;28;20029;-62
2022/06/03 12:23:50;;;;;;;2.03;1.42;;;27.20;97.50;;;;;;5064639;28;20045;-63
2022/06/03 12:26:31;;;;;;;4.70;1.20;;;26.70;97.40;;;;;;5058983;28;20025;-63
2022/06/03 12:29:06;;;;;;;15.13;6.53;;;27.00;95.60;;;;;;5066344;28;20047;-64
2022/06/03 12:31:41;;;;;;;7.63;2.95;;;26.90;98.80;;;;;;5065364;28;20028;-63
2022/06/03 12:34:09;;;;;;;14.75;5.55;;;27.00;99.90;;;;;;5065466;28;20029;-64
2022/06/03 12:36:47;;;;;;;4.10;2.22;;;27.30;99.90;;;;;;5061389;28;20032;-63
2022/06/03 12:39:32;;;;;;;5.65;2.85;;;27.60;98.90;;;;;;5067639;28;20049;-63
2022/06/03 12:42:06;;;;;;;6.53;3.67;;;28.00;98.40;;;;;;5065655;28;20032;-64
2022/06/03 12:44:36;;;;;;;1.65;1.30;;;28.40;96.80;;;;;;5068966;28;20286;-63
2022/06/03 12:47:35;;;;;;;3.08;1.70;;;28.60;94.60;;;;;;5058882;28;20052;-62
2022/06/03 12:50:04;;;;;;;3.50;1.58;;;28.50;97.20;;;;;;5069924;28;20020;-63
2022/06/03 12:52:29;;;;;;;6.35;1.83;;;28.80;96.70;;;;;;5067650;28;20059;-63
2022/06/03 12:55:21;;;;;;;6.25;2.35;;;28.70;96.90;;;;;;5063997;28;20060;-63
2022/06/03 12:57:58;;;;;;;2.88;1.80;;;28.50;97.70;;;;;;5065608;28;20124;-61
2022/06/03 13:00:33;;;;;;;2.55;1.67;;;28.40;94.70;;;;;;5067066;28;20017;-63
2022/06/03 13:03:16;;;;;;;3.95;1.20;;;28.70;97.80;;;;;;5066495;28;20032;-67
2022/06/03 13:05:43;;;;;;;5.93;1.90;;;29.30;96.80;;;;;;5061390;28;20020;-63
2022/06/03 13:09:34;;;;;;;5.10;1.83;;;29.70;96.70;;;;;;5060961;28;20039;-65
2022/06/03 13:11:20;;;;;;;1.83;1.33;;;29.70;94.10;;;;;;5070804;28;20123;-63
2022/06/03 13:14:07;;;;;;;2.20;1.70;;;29.10;96.90;;;;;;5064539;28;20104;-63
2022/06/03 13:16:34;;;;;;;6.15;1.95;;;28.60;94.60;;;;;;5064080;28;20574;-63
2022/06/03 13:19:18;;;;;;;5.78;2.25;;;29.20;95.60;;;;;;5062687;28;20028;-63
2022/06/03 13:22:02;;;;;;;2.53;1.85;;;29.00;95.10;;;;;;5068606;28;20061;-65
2022/06/03 13:24:29;;;;;;;2.53;1.63;;;29.30;94.60;;;;;;5067416;28;20036;-63
2022/06/03 13:27:23;;;;;;;1.83;1.30;;;29.80;92.00;;;;;;5067533;28;20124;-63
2022/06/03 13:29:49;;;;;;;2.20;1.75;;;29.40;95.20;;;;;;5060245;28;20036;-61
2022/06/03 13:32:17;;;;;;;2.05;1.30;;;28.50;97.10;;;;;;5065041;28;20106;-65
2022/06/03 13:34:43;;;;;;;5.47;2.92;;;28.00;98.10;;;;;;5064407;28;20115;-64
2022/06/03 13:37:30;;;;;;;2.08;1.60;;;27.90;98.80;;;;;;5061893;28;20031;-62
2022/06/03 13:39:56;;;;;;;3.47;2.33;;;27.60;99.90;;;;;;5061504;28;20039;-63
2022/06/03 13:45:12;;;;;;;1.92;1.35;;;27.00;98.90;;;;;;5059640;28;20106;-62
2022/06/03 13:47:42;;;;;;;2.47;1.77;;;27.10;94.90;;;;;;5061605;28;20032;-64
2022/06/03 13:50:14;;;;;;;1.50;1.40;;;27.30;95.80;;;;;;5062293;28;20016;-63
2022/06/03 13:52:53;;;;;;;5.10;1.83;;;27.50;94.30;;;;;;5059498;28;20136;-64
2022/06/03 13:55:37;;;;;;;2.03;1.60;;;27.50;96.10;;;;;;5063415;28;20093;-62
2022/06/03 13:58:23;;;;;;;2.90;1.40;;;27.40;95.00;;;;;;5060637;28;20032;-62
2022/06/03 14:00:51;;;;;;;1.75;1.30;;;27.60;94.40;;;;;;5065144;28;20048;-64
2022/06/03 14:03:30;;;;;;;2.60;1.10;;;27.60;94.60;;;;;;5063035;28;20032;-64
2022/06/03 14:06:01;;;;;;;2.03;1.25;;;27.60;94.10;;;;;;5074691;28;20067;-61
2022/06/03 14:08:46;;;;;;;3.97;1.20;;;27.60;94.50;;;;;;5064038;28;20021;-61
2022/06/03 14:11:26;;;;;;;3.10;1.20;;;28.00;96.30;;;;;;5068254;28;20944;-63
2022/06/03 14:13:53;;;;;;;2.70;1.25;;;28.20;94.00;;;;;;5066055;28;20456;-63
2022/06/03 14:16:27;;;;;;;2.40;1.40;;;27.80;93.80;;;;;;5071732;28;20494;-62
2022/06/03 14:18:52;;;;;;;;;;;27.50;94.50;;;;;;5051666;28;20511;-62
2022/06/03 14:21:27;;;;;;;1.85;1.40;;;27.70;95.40;;;;;;5066769;28;19916;-63
2022/06/03 14:23:57;;;;;;;1.38;1.20;;;28.20;95.40;;;;;;5064845;28;20036;-62
2022/06/03 14:26:34;;;;;;;4.30;1.60;;;28.20;94.80;;;;;;5063154;28;20025;-63